地図

経路データ

SID SEASON NUMBER BASIN SUBBASIN NAME ISO_TIME NATURE LAT LON WMO_WIND WMO_PRES WMO_AGENCY TRACK_TYPE DIST2LAND LANDFALL IFLAG USA_AGENCY USA_ATCF_ID USA_LAT USA_LON USA_RECORD USA_STATUS USA_WIND USA_PRES USA_SSHS USA_R34_NE USA_R34_SE USA_R34_SW USA_R34_NW USA_R50_NE USA_R50_SE USA_R50_SW USA_R50_NW USA_R64_NE USA_R64_SE USA_R64_SW USA_R64_NW USA_POCI USA_ROCI USA_RMW USA_EYE TOKYO_LAT TOKYO_LON TOKYO_GRADE TOKYO_WIND TOKYO_PRES TOKYO_R50_DIR TOKYO_R50_LONG TOKYO_R50_SHORT TOKYO_R30_DIR TOKYO_R30_LONG TOKYO_R30_SHORT TOKYO_LAND CMA_LAT CMA_LON CMA_CAT CMA_WIND CMA_PRES HKO_LAT HKO_LON HKO_CAT HKO_WIND HKO_PRES NEWDELHI_LAT NEWDELHI_LON NEWDELHI_GRADE NEWDELHI_WIND NEWDELHI_PRES NEWDELHI_CI NEWDELHI_DP NEWDELHI_POCI REUNION_LAT REUNION_LON REUNION_TYPE REUNION_WIND REUNION_PRES REUNION_TNUM REUNION_CI REUNION_RMW REUNION_R34_NE REUNION_R34_SE REUNION_R34_SW REUNION_R34_NW REUNION_R50_NE REUNION_R50_SE REUNION_R50_SW REUNION_R50_NW REUNION_R64_NE REUNION_R64_SE REUNION_R64_SW REUNION_R64_NW BOM_LAT BOM_LON BOM_TYPE BOM_WIND BOM_PRES BOM_TNUM BOM_CI BOM_RMW BOM_R34_NE BOM_R34_SE BOM_R34_SW BOM_R34_NW BOM_R50_NE BOM_R50_SE BOM_R50_SW BOM_R50_NW BOM_R64_NE BOM_R64_SE BOM_R64_SW BOM_R64_NW BOM_ROCI BOM_POCI BOM_EYE BOM_POS_METHOD BOM_PRES_METHOD NADI_LAT NADI_LON NADI_CAT NADI_WIND NADI_PRES WELLINGTON_LAT WELLINGTON_LON WELLINGTON_WIND WELLINGTON_PRES DS824_LAT DS824_LON DS824_STAGE DS824_WIND DS824_PRES TD9636_LAT TD9636_LON TD9636_STAGE TD9636_WIND TD9636_PRES TD9635_LAT TD9635_LON TD9635_WIND TD9635_PRES TD9635_ROCI NEUMANN_LAT NEUMANN_LON NEUMANN_CLASS NEUMANN_WIND NEUMANN_PRES MLC_LAT MLC_LON MLC_CLASS MLC_WIND MLC_PRES USA_GUST BOM_GUST BOM_GUST_PER REUNION_GUST REUNION_GUST_PER USA_SEAHGT USA_SEARAD_NE USA_SEARAD_SE USA_SEARAD_SW USA_SEARAD_NW STORM_SPEED STORM_DIR
2000023S15172 2000 5 SP MM JO 2000-01-23 00:00:00 TS -14.5000 171.700 25 1000 nadi main 464 464 O_______O___O_ jtwc_sh SH072000 -14.5000 171.700 25 -1 -14.5000 171.700 25 1000 -14.5000 171.700 25 1000 -14.5000 171.700 TC 25 6 122
2000023S15172 2000 5 SP MM JO 2000-01-23 03:00:00 TS -14.6450 171.945 main 478 478 P______IP___P_ SH072000 -14.8301 172.027 25 -1 -14.4599 171.863 25 999 -14.4599 171.863 25 999 -14.8301 172.027 TC 25 7 133
2000023S15172 2000 5 SP MM JO 2000-01-23 06:00:00 TS -14.9500 172.200 25 999 nadi main 496 493 O_______O___O_ jtwc_sh SH072000 -15.2000 172.300 25 -1 -14.7000 172.100 25 999 -14.7000 172.100 25 999 -15.2000 172.300 TC 25 10 150
2000023S15172 2000 5 SP MM JO 2000-01-23 09:00:00 TS -15.5088 172.458 main 510 505 P______IP___P_ SH072000 -15.6349 172.480 27 -1 -15.3827 172.437 27 998 -15.3827 172.437 27 998 -15.6349 172.480 TC 27 13 160
2000023S15172 2000 5 SP MM JO 2000-01-23 12:00:00 TS -16.1500 172.650 30 998 nadi main 523 499 O_______O___O_ jtwc_sh SH072000 -16.1000 172.600 30 -1 -16.2000 172.700 30 998 -16.2000 172.700 30 998 -16.1000 172.600 TC 30 12 170
2000023S15172 2000 5 SP MM JO 2000-01-23 15:00:00 TS -16.6874 172.679 main 499 487 P______IP___P_ SH072000 -16.5575 172.700 30 -1 -16.8174 172.658 30 997 -16.8174 172.658 30 997 -16.5575 172.700 TC 30 10 178
2000023S15172 2000 5 SP MM JO 2000-01-23 18:00:00 TS -17.1500 172.700 30 997 nadi main 487 458 O_______O___O_ jtwc_sh SH072000 -17.0000 172.800 30 -1 -17.3000 172.600 30 997 -17.3000 172.600 30 997 -17.0000 172.800 TC 30 9 167
2000023S15172 2000 5 SP MM JO 2000-01-23 21:00:00 TS -17.5394 172.890 main 458 434 P______IP___P_ SH072000 -17.4225 172.950 35 0 -17.6376 172.820 32 996 -17.6751 172.839 32 996 -17.4225 172.950 TC 35 8 151
2000023S15172 2000 5 SP MM JO 2000-01-24 00:00:00 TS -17.8500 173.100 35 995 nadi main 434 423 O_______O___O_ jtwc_sh SH072000 -17.8000 173.100 40 0 -17.9000 173.100 35 995 -17.9000 173.100 35 995 -17.8000 173.100 TC 40 6 151
2000023S15172 2000 5 SP MM JO 2000-01-24 03:00:00 TS -18.1037 173.220 main 423 412 P______IO___P_ SH072000 -18.1075 173.208 40 0 -18.1999 173.265 37 992 -18.0000 173.200 40 995 -18.1075 173.208 TC 40 6 158
2000023S15172 2000 5 SP MM JO 2000-01-24 06:00:00 TS -18.4500 173.350 40 990 nadi main 414 400 O_______O___O_ jtwc_sh SH072000 -18.4000 173.300 40 0 -18.5000 173.400 40 990 -18.5000 173.400 40 990 -18.4000 173.300 TC 40 7 161
2000023S15172 2000 5 SP MM JO 2000-01-24 09:00:00 TS -18.7888 173.467 main 400 395 P______IP___P_ SH072000 -18.7500 173.393 42 0 -18.8074 173.535 42 988 -18.8477 173.547 42 988 -18.7500 173.393 TC 42 7 160
2000023S15172 2000 5 SP MM JO 2000-01-24 12:00:00 TS -19.1000 173.600 45 987 nadi main 398 386 O_______O___O_ jtwc_sh SH072000 -19.1000 173.500 45 0 -19.1000 173.700 45 987 -19.1000 173.700 45 987 -19.1000 173.500 TC 45 7 153
2000023S15172 2000 5 SP MM JO 2000-01-24 15:00:00 TS -19.3750 173.781 main 390 381 P______IP___P_ SH072000 -19.4000 173.628 47 0 -19.3500 173.935 47 986 -19.3500 173.935 47 986 -19.4000 173.628 TC 47 7 146
2000023S15172 2000 5 SP MM JO 2000-01-24 18:00:00 TS -19.6500 174.000 50 985 nadi main 381 374 O_______O___O_ jtwc_sh SH072000 -19.7000 173.800 50 0 -19.6000 174.200 50 985 -19.6000 174.200 50 985 -19.7000 173.800 TC 50 7 143
2000023S15172 2000 5 SP MM JO 2000-01-24 21:00:00 TS -19.9638 174.257 main 378 375 P______IP___P_ SH072000 -20.0500 174.042 50 0 -19.8775 174.472 52 982 -19.8775 174.472 52 982 -20.0500 174.042 TC 50 8 144
2000023S15172 2000 5 SP MM JO 2000-01-25 00:00:00 TS -20.3000 174.500 55 980 nadi main 382 382 O_______O___O_ jtwc_sh SH072000 -20.4000 174.300 50 0 -20.2000 174.700 55 980 -20.2000 174.700 55 980 -20.4000 174.300 TC 50 8 151
2000023S15172 2000 5 SP MM JO 2000-01-25 03:00:00 TS -20.6424 174.665 main 390 390 P______IP___P_ SH072000 -20.7074 174.508 52 0 -20.5774 174.823 57 979 -20.5774 174.823 57 979 -20.7074 174.508 TC 52 8 158
2000023S15172 2000 5 SP MM JO 2000-01-25 06:00:00 TS -21.0000 174.800 60 978 nadi main 416 416 O_______O___O_ jtwc_sh SH072000 -21.0000 174.700 55 0 -21.0000 174.900 60 978 -21.0000 174.900 60 978 -21.0000 174.700 TC 55 8 162
2000023S15172 2000 5 SP MM JO 2000-01-25 09:00:00 TS -21.3824 174.917 main 446 446 P______IP___P_ SH072000 -21.3074 174.885 57 0 -21.4573 174.948 60 976 -21.4573 174.948 60 976 -21.3074 174.885 TC 57 8 160
2000023S15172 2000 5 SP MM JO 2000-01-25 12:00:00 TS -21.7500 175.100 60 975 nadi main 463 463 O_______O___O_ jtwc_sh SH072000 -21.6000 175.100 60 0 -21.9000 175.100 60 975 -21.9000 175.100 60 975 -21.6000 175.100 TC 60 8 144
2000023S15172 2000 5 SP MM JO 2000-01-25 15:00:00 TS -22.0500 175.430 main 489 481 P______IP___P_ SH072000 -21.8273 175.356 62 0 -22.2727 175.505 60 974 -22.2727 175.505 60 974 -21.8273 175.356 TC 62 9 131
2000023S15172 2000 5 SP MM JO 2000-01-25 18:00:00 TS -22.3500 175.850 60 974 nadi main 491 498 O_______O___O_ jtwc_sh SH072000 -22.1000 175.700 65 1 -22.6000 176.000 60 974 -22.6000 176.000 60 974 -22.1000 175.700 TC 65 10 129
2000023S15172 2000 5 SP MM JO 2000-01-25 21:00:00 TS -22.6949 176.278 main 519 519 P______IP___P_ SH072000 -22.4976 176.170 62 0 -22.8922 176.386 62 973 -22.8922 176.386 62 973 -22.4976 176.170 TC 62 11 132
2000023S15172 2000 5 SP MM JO 2000-01-26 00:00:00 TS -23.1000 176.750 65 972 nadi main 548 548 O_______O___O_ jtwc_sh SH072000 -23.0000 176.700 60 0 -23.2000 176.800 65 972 -23.2000 176.800 65 972 -23.0000 176.700 TC 60 13 134
2000023S15172 2000 5 SP MM JO 2000-01-26 03:00:00 TS -23.5699 177.257 main 595 595 P______IP___P_ SH072000 -23.5772 177.185 60 0 -23.5625 177.328 62 973 -23.5625 177.328 62 973 -23.5772 177.185 TC 60 14 136
2000023S15172 2000 5 SP MM JO 2000-01-26 06:00:00 TS -24.1000 177.800 60 974 nadi main 648 648 O_______O___O_ jtwc_sh SH072000 -24.2000 177.700 60 0 -24.0000 177.900 60 974 -24.0000 177.900 60 974 -24.2000 177.700 TC 60 15 137
2000023S15172 2000 5 SP MM JO 2000-01-26 09:00:00 TS -24.6635 178.357 main 715 715 P______IP___P_ SH072000 -24.8072 178.270 60 0 -24.5197 178.443 60 974 -24.5197 178.443 60 974 -24.8072 178.270 TC 60 16 138
2000023S15172 2000 5 SP MM JO 2000-01-26 12:00:00 TS -25.2500 178.950 60 975 wellington main 775 786 O_______O___O_ jtwc_sh SH072000 -25.4000 178.900 60 0 -25.1000 179.000 60 975 -25.1000 179.000 60 975 -25.4000 178.900 TC 60 16 136
2000023S15172 2000 5 SP MM JO 2000-01-26 15:00:00 TS -25.8362 179.596 main 850 850 P______IP___P_ SH072000 -25.9724 179.585 62 0 -25.7000 179.608 57 978 -25.7000 179.608 60 975 -25.9724 179.585 TC 62 16 134
2000023S15172 2000 5 SP MM JO 2000-01-26 18:00:00 TS -26.4000 180.250 60 975 wellington main 930 928 O_______O___O_ jtwc_sh SH072000 -26.5000 -179.700 65 1 -26.3000 -179.800 55 982 -26.3000 -179.800 60 975 -26.5000 -179.700 TC 65 15 135
2000023S15172 2000 5 SP MM JO 2000-01-26 21:00:00 TS -26.9137 180.795 main 997 997 P______IP___P_ SH072000 -26.9718 -179.022 62 0 -26.8555 -179.388 50 984 -26.8555 -179.388 60 975 -26.9718 -179.022 TC 62 15 133
2000023S15172 2000 5 SP MM JO 2000-01-27 00:00:00 TS -27.4000 181.450 60 975 wellington main 1068 1068 O_______O___O_ jtwc_sh SH072000 -27.4000 -178.300 60 0 -27.4000 -178.800 45 987 -27.4000 -178.800 60 975 -27.4000 -178.300 TC 60 17 124
2000023S15172 2000 5 SP MM JO 2000-01-27 03:00:00 TS -27.8564 182.394 main 1125 1125 P______IP___P_ SH072000 -27.7907 -177.546 57 0 -27.9221 -177.667 42 988 -27.9221 -177.667 57 977 -27.7907 -177.546 TC 57 20 117
2000023S15172 2000 5 SP MM JO 2000-01-27 06:00:00 TS -28.3400 183.493 55 980 wellington main 1142 1122 O_______O___O_ jtwc_sh SH072000 -28.2000 -176.600 55 0 -28.5000 -176.400 40 990 -28.5000 -176.400 55 980 -28.2000 -176.600 TC 55 22 119
2000023S15172 2000 5 SP MM JO 2000-01-27 09:00:00 TS -28.9455 184.594 main 1127 1117 P______IP___P_ SH072000 -28.6852 -175.340 45 0 -29.2092 -175.367 37 992 -29.3344 -175.556 55 982 -28.6852 -175.340 TC 45 24 119
2000023S15172 2000 5 SP MM JO 2000-01-27 12:00:00 TS -29.5077 185.869 55 984 wellington main 1135 1135 O_______O___O_ jtwc_sh SH072000 -29.2000 -173.900 35 0 -30.0000 -174.500 35 995 -30.0000 -174.500 55 984 -29.2000 -173.900 TC 35 26 108
2000023S15172 2000 5 SP MM JO 2000-01-27 15:00:00 TS -29.7619 187.417 main 1196 1196 P_______P___P_ SH072000 -29.6839 -172.463 32 -1 -29.9177 -172.824 55 984 -29.6839 -172.463 TC 32 29 102
2000023S15172 2000 5 SP MM JO 2000-01-27 18:00:00 TS -30.1000 189.100 55 984 wellington main 1284 1284 O_______O___O_ jtwc_sh SH072000 -30.2000 -171.000 30 -1 -29.9000 -170.700 55 984 -30.2000 -171.000 TC 30 32 108
2000023S15172 2000 5 SP MM JO 2000-01-27 21:00:00 TS -30.7518 190.892 main 1363 1363 P_______P___P_ SH072000 -30.7671 -169.585 27 -1 -30.7211 -168.154 55 984 -30.7671 -169.585 TC 27 36 114
2000023S15172 2000 5 SP MM JO 2000-01-28 00:00:00 TS -31.5600 192.900 55 984 wellington main 1469 1469 O_______O___O_ jtwc_sh SH072000 -31.4000 -168.100 25 -1 -31.8000 -165.600 55 984 -31.4000 -168.100 TC 25 38 115
2000023S15172 2000 5 SP MM JO 2000-01-28 03:00:00 TS -32.3849 194.948 main 1591 1591 P_______P___P_ SH072000 -32.0907 -166.456 25 -1 -32.6790 -163.647 55 984 -32.0907 -166.456 TC 25 40 115
2000023S15172 2000 5 SP MM JO 2000-01-28 06:00:00 TS -33.2667 197.167 55 985 wellington main 1746 1746 O_______O___O_ jtwc_sh SH072000 -32.8000 -164.700 25 -1 -33.5000 -161.900 55 985 -32.8000 -164.700 TC 25 46 112
2000023S15172 2000 5 SP MM JO 2000-01-28 09:00:00 NR -34.1308 200.018 main 1959 1959 ________P_____ SH072000 -1 -34.1308 -159.982 55 984 TC 42 113
2000023S15172 2000 5 SP MM JO 2000-01-28 12:00:00 NR -34.9000 201.900 55 984 wellington main 2100 2100 ________O_____ -1 -34.9000 -158.100 55 984 37 121
2000023S15172 2000 5 SP MM JO 2000-01-28 15:00:00 NR -36.0537 203.923 main 2244 2244 ________P_____ -1 -36.0537 -156.077 55 981 39 132
2000023S15172 2000 5 SP MM JO 2000-01-28 18:00:00 NR -37.5000 205.500 55 978 wellington main 2355 2355 ________O_____ -1 -37.5000 -154.500 55 978 37 151
2000023S15172 2000 5 SP MM JO 2000-01-28 21:00:00 NR -39.2624 206.129 main 2383 2382 ________P_____ -1 -39.2624 -153.871 55 978 34 171
2000023S15172 2000 5 SP MM JO 2000-01-29 00:00:00 NR -40.9000 206.200 55 979 wellington main 2384 2381 ________O_____ -1 -40.9000 -153.800 55 979 27 178
2000023S15172 2000 5 SP MM JO 2000-01-29 03:00:00 NR -41.9220 206.249 main 2381 2381 ________P_____ -1 -41.9220 -153.751 50 980 17 0
2000023S15172 2000 5 SP MM JO 2000-01-29 06:00:00 NR -42.6000 206.200 45 981 wellington main 2382 2382 ________O_____ -1 -42.6000 -153.800 45 981 13 0
2000023S15172 2000 5 SP MM JO 2000-01-29 09:00:00 NR -43.2175 206.242 main 2384 2384 ________P_____ -1 -43.2175 -153.758 45 982 11 176
2000023S15172 2000 5 SP MM JO 2000-01-29 12:00:00 NR -43.7000 206.300 45 983 wellington main 2395 2395 ________O_____ -1 -43.7000 -153.700 45 983 9 175
2000023S15172 2000 5 SP MM JO 2000-01-29 15:00:00 NR -44.1450 206.343 main 2396 2396 ________P_____ -1 -44.1450 -153.657 45 978 8 175
2000023S15172 2000 5 SP MM JO 2000-01-29 18:00:00 NR -44.5000 206.400 45 974 wellington main 2407 2407 ________O_____ -1 -44.5000 -153.600 45 974 7 170
2000023S15172 2000 5 SP MM JO 2000-01-29 21:00:00 NR -44.7875 206.500 main 2417 2417 ________P_____ -1 -44.7875 -153.500 42 981 5 164
2000023S15172 2000 5 SP MM JO 2000-01-30 00:00:00 NR -45.0000 206.600 40 989 wellington main 2427 2427 ________O_____ -1 -45.0000 -153.400 40 989 4 166
2000023S15172 2000 5 SP MM JO 2000-01-30 03:00:00 NR -45.1649 206.635 main 2429 2429 ________P_____ -1 -45.1649 -153.365 40 988 3 168
2000023S15172 2000 5 SP MM JO 2000-01-30 06:00:00 NR -45.3000 206.700 40 988 wellington main 2438 2438 ________O_____ -1 -45.3000 -153.300 40 988 3 153
2000023S15172 2000 5 SP MM JO 2000-01-30 09:00:00 NR -45.4573 206.848 main 2448 2448 ________P_____ -1 -45.4573 -153.152 40 988 4 137
2000023S15172 2000 5 SP MM JO 2000-01-30 12:00:00 NR -45.6000 207.100 40 988 wellington main 2472 2472 ________O_____ -1 -45.6000 -152.900 40 988 5 123
2000023S15172 2000 5 SP MM JO 2000-01-30 15:00:00 NR -45.7145 207.425 main 2496 2496 ________P_____ -1 -45.7145 -152.575 40 989 6 110
2000023S15172 2000 5 SP MM JO 2000-01-30 18:00:00 NR -45.8000 207.900 40 990 wellington main 2536 2536 ________O_____ -1 -45.8000 -152.100 40 990 8 100
2000023S15172 2000 5 SP MM JO 2000-01-30 21:00:00 NR -45.8573 208.533 main 2583 2583 ________P_____ -1 -45.8573 -151.467 37 990 10 96
2000023S15172 2000 5 SP MM JO 2000-01-31 00:00:00 NR -45.9000 209.300 35 991 wellington main 2644 2644 ________O_____ -1 -45.9000 -150.700 35 991 11 95
2000023S15172 2000 5 SP MM JO 2000-01-31 03:00:00 NR -45.9568 210.105 main 2707 2707 ________P_____ -1 -45.9568 -149.895 35 992 12 95
2000023S15172 2000 5 SP MM JO 2000-01-31 06:00:00 NR -46.0000 211.000 35 993 wellington main 2776 2776 ________O_____ -1 -46.0000 -149.000 35 993 13 92
2000023S15172 2000 5 SP MM JO 2000-01-31 09:00:00 NR -46.0072 211.978 main 2853 2853 ________P_____ -1 -46.0072 -148.022 32 995 14 90
2000023S15172 2000 5 SP MM JO 2000-01-31 12:00:00 NR -46.0000 213.000 30 997 wellington main 2929 2929 ________O_____ -1 -46.0000 -147.000 30 997 13 91
2000023S15172 2000 5 SP MM JO 2000-01-31 15:00:00 NR -46.0268 213.923 main 2999 2999 ________P_____ -1 -46.0268 -146.077 27 997 14 90
2000023S15172 2000 5 SP MM JO 2000-01-31 18:00:00 NR -46.0000 215.000 25 998 wellington main 3083 3083 ________O_____ -1 -46.0000 -145.000 25 998 18 85
2000023S15172 2000 5 SP MM JO 2000-01-31 21:00:00 NR -45.8502 216.578 main 3162 3162 ________P_____ -1 -45.8502 -143.422 25 998 21 79
2000023S15172 2000 5 SP MM JO 2000-02-01 00:00:00 NR -45.6000 218.000 25 999 wellington main 3175 3174 ________O_____ -1 -45.6000 -142.000 25 999 15 69
2000023S15172 2000 5 SP MM JO 2000-02-01 03:00:00 NR -45.3027 218.572 main 3201 3201 ________P_____ -1 -45.3027 -141.428 25 998 9 50
2000023S15172 2000 5 SP MM JO 2000-02-01 06:00:00 NR -45.0000 219.000 25 998 wellington main 3228 3226 ________O_____ -1 -45.0000 -141.000 25 998 11 63
2000023S15172 2000 5 SP MM JO 2000-02-01 09:00:00 NR -44.8187 219.944 main 3240 3235 ________P_____ -1 -44.8187 -140.056 25 998 15 71
2000023S15172 2000 5 SP MM JO 2000-02-01 12:00:00 NR -44.5000 221.000 25 999 wellington main 3261 3260 ________O_____ -1 -44.5000 -139.000 25 999 18 51
2000023S15172 2000 5 SP MM JO 2000-02-01 15:00:00 NR -43.6745 221.909 main 3340 3340 ________P_____ -1 -43.6745 -138.091 25 1000 19 39
2000023S15172 2000 5 SP MM JO 2000-02-01 18:00:00 NR -43.0000 222.700 25 1001 wellington main 3409 3392 ________O_____ -1 -43.0000 -137.300 25 1001 12 65
2000023S15172 2000 5 SP MM JO 2000-02-01 21:00:00 NR -43.1525 223.441 main 3381 3343 ________P_____ -1 -43.1525 -136.559 25 1001 11 118
2000023S15172 2000 5 SP MM JO 2000-02-02 00:00:00 NR -43.5000 224.000 25 1002 wellington main 3343 3341 ________O_____ -1 -43.5000 -136.000 25 1002 7 117
2000023S15172 2000 5 SP MM JO 2000-02-02 03:00:00 NR -43.4592 224.253 main 3340 3340 ________P_____ -1 -43.4592 -135.747 25 1002 4 56
2000023S15172 2000 5 SP MM JO 2000-02-02 06:00:00 NR -43.3000 224.400 25 1003 wellington main 3362 3361 ________O_____ -1 -43.3000 -135.600 25 1003 5 47
2000023S15172 2000 5 SP MM JO 2000-02-02 09:00:00 NR -43.1329 224.735 main 3381 3380 ________P_____ -1 -43.1329 -135.265 25 1003 5 55
2000023S15172 2000 5 SP MM JO 2000-02-02 12:00:00 NR -43.0000 225.000 25 1004 wellington main 3390 3389 ________O_____ -1 -43.0000 -135.000 25 1004 3 56
2000023S15172 2000 5 SP MM JO 2000-02-02 15:00:00 NR -42.9777 225.044 main 3390 3390 ________P_____ -1 -42.9777 -134.956 25 1004 0 0
2000023S15172 2000 5 SP MM JO 2000-02-02 17:00:00 NR -43.0000 225.000 25 1004 wellington main 3390 ________O_____ -1 -43.0000 -135.000 25 1004 1 236

デジタル台風データ・検索

IBTrACS Databaseについて

本データベースは、米国NOAAが公開する1842年以降の世界の熱帯低気圧のベストトラックデータアーカイブInternational Best Track Archive for Climate Stewardship (IBTrACS)を、ウェブで閲覧しやすい形式に変換したものです。

最終更新日:2021-12-06